Kapfenberg, Austria
Current Conditions -  °F | °C
As of 12:20 PM on Monday 26 Jan 2015 (Local Time) from LOWG Reporting Station
Broken Clouds Broken Clouds  
Wind Chill: 34°   Ceiling: 30000
Heat Index: 34°   Visibility: 6mi
Dew Point: 27°   Wind: 3mph
Humidity: 75%   Direction: 160°SSE
Pressure: 30.24"   Gusts: NA
Location:  47.45°N, 15.29°E
Report Text: LOWG 261020Z 16003KT 9999 FEW040 BKN300 01/M03 Q1024 R17/1///95 NOSIG
Loading
Personal Weather Stations






























Interactive Weather Map New forecast layout! Learn more

10-Day Weather Forecast

Advertisements
Track Severe Weather on mobile